Time;durP1;ratioP1;P1;durP2;ratioP2;P2;SDS_P1;SDS_P2;PMS_P1;PMS_P2;Temp;Humidity;BMP_temperature;BMP_pressure;BME280_temperature;BME280_humidity;BME280_pressure;Samples;Min_cycle;Max_cycle;Signal;HPM_P1;HPM_P2
2021/11/10 00:00:04;;;;;;;16.17;8.95;;;3.50;99.90;;;;;;5089070;28;20038;-61
2021/11/10 00:02:29;;;;;;;19.90;9.13;;;3.40;99.90;;;;;;5087654;28;20489;-61
2021/11/10 00:04:55;;;;;;;20.60;9.45;;;3.30;99.90;;;;;;5092157;28;20059;-60
2021/11/10 00:07:20;;;;;;;21.00;9.15;;;3.20;99.90;;;;;;5086990;28;20044;-61
2021/11/10 00:09:46;;;;;;;23.40;9.80;;;3.10;99.90;;;;;;5089414;28;20104;-60
2021/11/10 00:12:11;;;;;;;23.90;11.15;;;3.00;99.90;;;;;;5091296;28;20024;-60
2021/11/10 00:14:37;;;;;;;25.42;9.55;;;3.00;99.90;;;;;;5089842;28;20501;-60
2021/11/10 00:17:03;;;;;;;23.98;10.50;;;3.00;99.90;;;;;;5090163;28;20442;-60
2021/11/10 00:19:28;;;;;;;22.60;9.95;;;3.10;99.90;;;;;;5064809;28;20035;-60
2021/11/10 00:21:54;;;;;;;24.73;10.38;;;3.00;99.90;;;;;;5081690;28;20066;-60
2021/11/10 00:24:19;;;;;;;23.58;10.20;;;2.90;99.90;;;;;;5085245;28;20032;-61
2021/11/10 00:26:45;;;;;;;20.02;10.30;;;2.80;99.90;;;;;;5088427;28;20111;-61
2021/11/10 00:29:11;;;;;;;17.10;9.60;;;2.80;99.90;;;;;;5086298;28;20489;-58
2021/11/10 00:31:37;;;;;;;20.00;10.60;;;2.80;99.90;;;;;;5085371;28;20066;-59
2021/11/10 00:34:03;;;;;;;15.57;9.45;;;2.80;99.90;;;;;;5087091;28;20038;-60
2021/11/10 00:36:28;;;;;;;22.40;10.20;;;2.70;99.90;;;;;;5087472;28;20020;-61
2021/11/10 00:38:54;;;;;;;21.65;10.25;;;2.60;99.90;;;;;;5083744;28;20307;-61
2021/11/10 00:41:19;;;;;;;21.70;10.82;;;2.60;99.90;;;;;;5087600;28;20542;-58
2021/11/10 00:43:45;;;;;;;25.30;9.80;;;2.70;99.90;;;;;;5079576;28;20115;-60
2021/11/10 00:46:10;;;;;;;20.88;9.50;;;2.70;99.90;;;;;;5088200;28;20064;-60
2021/11/10 00:48:36;;;;;;;23.95;9.35;;;2.80;99.90;;;;;;5084678;28;20036;-60
2021/11/10 00:51:03;;;;;;;31.48;11.20;;;2.80;99.90;;;;;;5087321;28;20043;-59
2021/11/10 00:53:28;;;;;;;24.48;10.63;;;2.80;99.90;;;;;;5080487;28;20031;-60
2021/11/10 00:55:54;;;;;;;18.98;10.68;;;2.80;99.90;;;;;;5081093;28;20036;-60
2021/11/10 00:58:19;;;;;;;23.40;10.65;;;2.90;99.90;;;;;;5083929;28;20031;-58
2021/11/10 01:00:45;;;;;;;23.73;9.68;;;3.00;99.90;;;;;;5084264;28;20029;-58
2021/11/10 01:03:12;;;;;;;22.83;10.15;;;3.00;99.90;;;;;;5086242;28;20032;-59
2021/11/10 01:05:39;;;;;;;23.35;10.68;;;3.00;99.90;;;;;;5083167;28;20090;-58
2021/11/10 01:08:06;;;;;;;20.98;10.25;;;3.00;99.90;;;;;;5087240;28;20522;-60
2021/11/10 01:10:32;;;;;;;21.55;9.52;;;2.90;99.90;;;;;;5084354;28;20418;-60
2021/11/10 01:12:58;;;;;;;22.90;8.90;;;2.70;99.90;;;;;;5086524;28;20024;-60
2021/11/10 01:15:24;;;;;;;23.70;10.52;;;2.60;99.90;;;;;;5081873;28;20490;-60
2021/11/10 01:17:50;;;;;;;24.40;10.05;;;2.50;99.90;;;;;;5086237;28;20077;-60
2021/11/10 01:20:16;;;;;;;21.90;10.30;;;2.60;99.90;;;;;;5080163;28;20020;-60
2021/11/10 01:22:42;;;;;;;32.25;10.55;;;2.70;99.90;;;;;;5086089;28;20020;-59
2021/11/10 01:25:10;;;;;;;29.27;10.30;;;2.70;99.90;;;;;;5084305;28;20530;-61
2021/11/10 01:27:36;;;;;;;19.73;9.77;;;2.80;99.90;;;;;;5086722;28;20024;-60
2021/11/10 01:30:08;;;;;;;21.13;9.55;;;2.80;99.90;;;;;;5083529;28;20039;-60
2021/11/10 01:32:33;;;;;;;18.65;9.40;;;2.80;99.90;;;;;;5084391;28;20055;-60
2021/11/10 01:34:59;;;;;;;25.35;10.25;;;2.70;99.90;;;;;;5088156;28;20418;-60
2021/11/10 01:37:24;;;;;;;22.40;9.93;;;2.70;99.90;;;;;;5086934;28;20397;-62
2021/11/10 01:39:50;;;;;;;24.08;9.48;;;2.70;99.90;;;;;;5080914;28;20512;-61
2021/11/10 01:42:15;;;;;;;19.75;9.85;;;2.60;99.90;;;;;;5081519;28;20020;-63
2021/11/10 01:44:41;;;;;;;19.67;9.25;;;2.60;99.90;;;;;;5069496;28;20024;-60
2021/11/10 01:47:10;;;;;;;18.98;9.13;;;2.40;99.90;;;;;;5085375;28;20111;-61
2021/11/10 01:49:37;;;;;;;26.85;9.35;;;2.30;99.90;;;;;;5080990;28;20024;-60
2021/11/10 01:52:04;;;;;;;19.52;8.82;;;2.20;99.90;;;;;;5083995;28;20056;-60
2021/11/10 01:54:32;;;;;;;20.58;9.98;;;2.10;99.90;;;;;;5082702;28;20028;-60
2021/11/10 01:56:59;;;;;;;20.92;10.60;;;2.00;99.90;;;;;;5083967;28;20492;-59
2021/11/10 01:59:30;;;;;;;32.17;12.70;;;1.90;99.90;;;;;;5079126;28;20038;-60
2021/11/10 02:01:56;;;;;;;31.38;12.52;;;2.00;99.90;;;;;;5084956;28;20078;-61
2021/11/10 02:04:24;;;;;;;24.92;11.93;;;2.00;99.90;;;;;;5087326;28;20028;-59
2021/11/10 02:06:50;;;;;;;20.25;10.48;;;2.10;99.90;;;;;;5085533;28;20115;-60
2021/11/10 02:09:15;;;;;;;27.83;11.63;;;2.20;99.90;;;;;;5086510;28;20541;-60
2021/11/10 02:11:41;;;;;;;22.50;10.73;;;2.40;99.90;;;;;;5079082;28;20315;-60
2021/11/10 02:14:07;;;;;;;22.23;10.43;;;2.40;99.90;;;;;;5065048;28;20055;-61
2021/11/10 02:16:38;;;;;;;24.88;11.18;;;2.50;99.90;;;;;;5088637;28;20047;-61
2021/11/10 02:19:05;;;;;;;31.75;10.43;;;2.50;99.90;;;;;;5081847;28;20267;-62
2021/11/10 02:21:31;;;;;;;30.58;10.73;;;2.50;99.90;;;;;;5084028;28;20077;-61
2021/11/10 02:23:59;;;;;;;31.27;11.23;;;2.50;99.90;;;;;;5085481;28;20035;-61
2021/11/10 02:26:25;;;;;;;20.95;10.68;;;2.50;99.90;;;;;;5082466;28;20538;-61
2021/11/10 02:28:52;;;;;;;23.05;10.85;;;2.50;99.90;;;;;;5084780;28;20028;-59
2021/11/10 02:31:18;;;;;;;23.50;10.98;;;2.50;99.90;;;;;;5081115;28;20036;-60
2021/11/10 02:33:44;;;;;;;20.20;10.40;;;2.50;99.90;;;;;;5083187;28;20035;-58
2021/11/10 02:36:10;;;;;;;19.25;10.35;;;2.50;99.90;;;;;;5085579;28;20036;-61
2021/11/10 02:38:36;;;;;;;21.67;10.63;;;2.40;99.90;;;;;;5083051;28;20027;-60
2021/11/10 02:41:02;;;;;;;21.52;9.52;;;2.20;99.90;;;;;;5085845;28;20101;-60
2021/11/10 02:43:29;;;;;;;22.52;9.88;;;2.00;99.90;;;;;;5078753;28;20050;-60
2021/11/10 02:45:55;;;;;;;22.60;9.63;;;2.00;99.90;;;;;;5081515;28;20043;-60
2021/11/10 02:48:21;;;;;;;18.98;9.27;;;2.00;99.90;;;;;;5088215;28;20024;-60
2021/11/10 02:50:48;;;;;;;19.70;10.48;;;2.00;99.90;;;;;;5087472;28;20362;-60
2021/11/10 02:53:14;;;;;;;19.58;10.18;;;2.10;99.90;;;;;;5078468;28;20017;-60
2021/11/10 02:55:39;;;;;;;18.63;10.30;;;2.10;99.90;;;;;;5082816;28;20505;-60
2021/11/10 02:58:05;;;;;;;27.13;10.85;;;2.20;99.90;;;;;;5081147;28;20059;-61
2021/11/10 03:00:32;;;;;;;25.40;12.43;;;2.30;99.90;;;;;;5081540;28;20374;-60
2021/11/10 03:02:59;;;;;;;25.65;9.70;;;2.30;99.90;;;;;;5085712;28;20035;-60
2021/11/10 03:05:25;;;;;;;21.52;9.68;;;2.30;99.90;;;;;;5076256;28;20020;-61
2021/11/10 03:07:51;;;;;;;30.17;10.55;;;2.40;99.90;;;;;;5084370;28;20032;-61
2021/11/10 03:10:17;;;;;;;18.48;9.48;;;2.40;99.90;;;;;;5082584;28;20182;-61
2021/11/10 03:12:44;;;;;;;26.25;10.55;;;2.40;99.90;;;;;;5080199;28;20107;-60
2021/11/10 03:15:10;;;;;;;22.52;9.80;;;2.50;99.90;;;;;;5087473;28;20032;-61
2021/11/10 03:17:36;;;;;;;18.55;8.90;;;2.40;99.90;;;;;;5085283;28;20429;-60
2021/11/10 03:20:04;;;;;;;25.23;10.45;;;2.40;99.90;;;;;;5085861;28;20112;-59
2021/11/10 03:22:29;;;;;;;18.67;9.55;;;2.40;99.90;;;;;;5083540;28;20407;-60
2021/11/10 03:24:55;;;;;;;19.63;9.80;;;2.50;99.90;;;;;;5080258;28;20049;-60
2021/11/10 03:27:20;;;;;;;21.10;11.10;;;2.30;99.90;;;;;;5085289;28;20036;-59
2021/11/10 03:29:53;;;;;;;21.17;10.38;;;2.40;99.90;;;;;;5087468;28;20032;-60
2021/11/10 03:32:20;;;;;;;29.02;11.25;;;2.30;99.90;;;;;;5085791;28;20028;-59
2021/11/10 03:34:46;;;;;;;26.83;9.85;;;2.20;99.90;;;;;;5086204;28;20154;-60
2021/11/10 03:37:13;;;;;;;22.95;10.95;;;2.10;99.90;;;;;;5084652;28;20032;-60
2021/11/10 03:39:39;;;;;;;20.38;10.10;;;2.10;99.90;;;;;;5081867;28;20341;-61
2021/11/10 03:42:05;;;;;;;20.88;9.40;;;2.10;99.90;;;;;;5083714;28;20031;-59
2021/11/10 03:44:31;;;;;;;21.13;11.13;;;2.00;99.90;;;;;;5078140;28;20032;-60
2021/11/10 03:46:56;;;;;;;19.90;10.15;;;1.90;99.90;;;;;;5083678;28;20034;-60
2021/11/10 03:49:23;;;;;;;24.45;11.38;;;1.90;99.90;;;;;;5077193;28;20106;-60
2021/11/10 03:51:49;;;;;;;34.00;11.82;;;1.80;99.90;;;;;;5078409;28;20043;-61
2021/11/10 03:54:15;;;;;;;26.45;11.07;;;1.70;99.90;;;;;;5078739;28;20028;-61
2021/11/10 03:56:41;;;;;;;28.58;10.73;;;1.80;99.90;;;;;;5079853;28;20021;-60
2021/11/10 03:59:07;;;;;;;25.27;11.70;;;1.90;99.90;;;;;;5078076;28;20028;-61
2021/11/10 04:01:32;;;;;;;25.58;11.15;;;1.90;99.90;;;;;;5079432;28;20029;-60
2021/11/10 04:03:58;;;;;;;22.75;10.57;;;1.90;99.90;;;;;;5078305;28;20025;-60
2021/11/10 04:06:24;;;;;;;21.92;11.50;;;1.90;99.90;;;;;;5078828;28;20145;-61
2021/11/10 04:08:51;;;;;;;29.48;11.30;;;1.80;99.90;;;;;;5098403;22;20220;-63
2021/11/10 04:11:18;;;;;;;18.13;9.48;;;1.80;99.90;;;;;;5085410;28;20126;-63
2021/11/10 04:13:44;;;;;;;25.35;11.07;;;1.70;99.90;;;;;;5085541;28;20021;-63
2021/11/10 04:16:10;;;;;;;21.63;9.80;;;1.70;99.90;;;;;;5083379;28;20024;-62
2021/11/10 04:18:35;;;;;;;18.83;10.65;;;1.60;99.90;;;;;;5084676;28;20035;-63
2021/11/10 04:21:05;;;;;;;20.30;10.43;;;1.50;99.90;;;;;;5090864;28;20135;-62
2021/11/10 04:23:33;;;;;;;20.17;9.38;;;1.60;99.90;;;;;;5086725;28;20032;-63
2021/11/10 04:26:00;;;;;;;20.00;9.82;;;1.60;99.90;;;;;;5089279;28;20039;-61
2021/11/10 04:28:26;;;;;;;30.90;12.88;;;1.60;99.90;;;;;;5087907;28;20023;-62
2021/11/10 04:30:53;;;;;;;30.10;13.93;;;1.70;99.90;;;;;;5089033;28;20118;-63
2021/11/10 04:33:20;;;;;;;22.60;11.85;;;1.80;99.90;;;;;;5080120;28;20020;-63
2021/11/10 04:35:46;;;;;;;31.75;11.25;;;1.80;99.90;;;;;;5087718;28;20115;-62
2021/11/10 04:38:12;;;;;;;26.00;11.57;;;1.70;99.90;;;;;;5085859;28;20533;-63
2021/11/10 04:40:37;;;;;;;28.38;10.45;;;1.60;99.90;;;;;;5086911;28;20115;-63
2021/11/10 04:43:03;;;;;;;25.58;10.40;;;1.60;99.90;;;;;;5079095;28;20016;-60
2021/11/10 04:45:32;;;;;;;22.10;10.50;;;1.70;99.90;;;;;;5081648;28;20032;-63
2021/11/10 04:47:58;;;;;;;20.77;10.75;;;1.60;99.90;;;;;;5086108;28;20031;-63
2021/11/10 04:50:23;;;;;;;25.20;10.05;;;1.60;99.90;;;;;;5083598;28;20406;-63
2021/11/10 04:52:49;;;;;;;23.23;10.43;;;1.50;99.90;;;;;;5083279;28;20024;-63
2021/11/10 04:55:15;;;;;;;22.58;11.13;;;1.50;99.90;;;;;;5080135;28;20041;-64
2021/11/10 04:57:41;;;;;;;21.73;10.63;;;1.60;99.90;;;;;;5088614;28;20398;-63
2021/11/10 05:00:09;;;;;;;21.40;9.20;;;1.60;99.90;;;;;;5085135;28;20028;-63
2021/11/10 05:02:35;;;;;;;26.83;11.77;;;1.60;99.90;;;;;;5085117;28;20085;-61
2021/11/10 05:05:01;;;;;;;22.90;10.23;;;1.50;99.90;;;;;;5086914;28;20028;-62
2021/11/10 05:07:27;;;;;;;22.83;10.35;;;1.40;99.90;;;;;;5090083;28;20032;-63
2021/11/10 05:09:54;;;;;;;25.13;11.38;;;1.30;99.90;;;;;;5083609;28;20032;-63
2021/11/10 05:12:20;;;;;;;23.77;10.52;;;1.20;99.90;;;;;;5085621;28;20023;-64
2021/11/10 05:14:45;;;;;;;24.33;11.07;;;1.00;99.90;;;;;;5087892;28;20032;-64
2021/11/10 05:17:11;;;;;;;25.35;11.90;;;1.00;99.90;;;;;;5086454;28;20433;-63
2021/11/10 05:19:37;;;;;;;28.33;11.82;;;1.00;99.90;;;;;;5085845;28;20032;-63
2021/11/10 05:22:03;;;;;;;28.20;12.75;;;1.00;99.90;;;;;;5085734;28;20028;-64
2021/11/10 05:24:28;;;;;;;23.23;12.48;;;1.10;99.90;;;;;;5086840;28;20111;-63
2021/11/10 05:26:55;;;;;;;25.63;12.50;;;1.20;99.90;;;;;;5083158;28;20024;-63
2021/11/10 05:29:21;;;;;;;25.67;11.65;;;1.30;99.90;;;;;;5085691;28;20099;-63
2021/11/10 05:31:47;;;;;;;25.48;11.65;;;1.40;99.90;;;;;;5088357;28;20450;-65
2021/11/10 05:34:13;;;;;;;32.38;13.00;;;1.40;99.90;;;;;;5081418;28;20537;-64
2021/11/10 05:36:38;;;;;;;29.15;11.82;;;1.50;99.90;;;;;;5081233;28;20028;-63
2021/11/10 05:39:04;;;;;;;27.13;11.70;;;1.40;99.90;;;;;;5081864;28;20055;-63
2021/11/10 05:41:30;;;;;;;25.73;11.52;;;1.40;99.90;;;;;;5082556;28;20028;-64
2021/11/10 05:43:55;;;;;;;26.45;10.82;;;1.50;99.90;;;;;;5080635;28;20409;-61
2021/11/10 05:46:21;;;;;;;20.90;10.63;;;1.60;99.90;;;;;;5080501;28;20186;-63
2021/11/10 05:48:46;;;;;;;22.13;11.10;;;1.50;99.90;;;;;;5081531;28;20593;-63
2021/11/10 05:51:12;;;;;;;25.13;10.82;;;1.50;99.90;;;;;;5082476;28;20085;-64
2021/11/10 05:53:43;;;;;;;24.05;10.13;;;1.50;99.90;;;;;;5079921;28;20036;-63
2021/11/10 05:56:16;;;;;;;18.70;9.70;;;1.50;99.90;;;;;;5082035;28;20227;-63
2021/11/10 05:58:42;;;;;;;22.20;9.73;;;1.60;99.90;;;;;;5079445;28;20032;-62
2021/11/10 06:01:08;;;;;;;24.13;11.32;;;1.50;99.90;;;;;;5078825;28;20044;-63
2021/11/10 06:03:33;;;;;;;23.40;11.23;;;1.50;99.90;;;;;;5084587;28;20028;-61
2021/11/10 06:05:59;;;;;;;22.45;10.82;;;1.60;99.90;;;;;;5088653;28;20039;-63
2021/11/10 06:08:24;;;;;;;24.60;10.05;;;1.50;99.90;;;;;;5086764;28;20024;-63
2021/11/10 06:10:50;;;;;;;25.20;10.30;;;1.40;99.90;;;;;;5087425;28;20043;-62
2021/11/10 06:13:16;;;;;;;21.73;10.32;;;1.40;99.90;;;;;;5087041;28;20034;-63
2021/11/10 06:15:41;;;;;;;22.80;10.50;;;1.40;99.90;;;;;;5085303;28;20039;-63
2021/11/10 06:18:07;;;;;;;22.20;10.63;;;1.40;99.90;;;;;;5084237;28;20044;-61
2021/11/10 06:20:35;;;;;;;29.13;11.13;;;1.40;99.90;;;;;;5064592;28;20024;-64
2021/11/10 06:23:02;;;;;;;27.58;10.65;;;1.50;99.90;;;;;;5078971;28;20027;-63
2021/11/10 06:25:27;;;;;;;20.88;9.93;;;1.50;99.90;;;;;;5083487;28;20032;-63
2021/11/10 06:27:53;;;;;;;22.02;10.63;;;1.50;99.90;;;;;;5088362;28;20111;-62
2021/11/10 06:30:19;;;;;;;21.02;11.25;;;1.60;99.90;;;;;;5081339;28;20064;-63
2021/11/10 06:32:45;;;;;;;26.00;11.95;;;1.60;99.90;;;;;;5081860;28;20022;-63
2021/11/10 06:35:12;;;;;;;25.40;11.95;;;1.60;99.90;;;;;;5087703;28;20024;-64
2021/11/10 06:37:38;;;;;;;25.15;11.82;;;1.50;99.90;;;;;;5084110;28;20501;-64
2021/11/10 06:40:05;;;;;;;24.73;11.18;;;1.60;99.90;;;;;;5088487;28;20032;-64
2021/11/10 06:42:31;;;;;;;24.58;10.85;;;1.60;99.90;;;;;;5090328;28;20128;-64
2021/11/10 06:44:57;;;;;;;24.70;10.98;;;1.50;99.90;;;;;;5102729;28;20128;-63
2021/11/10 06:47:24;;;;;;;24.92;10.48;;;1.50;99.90;;;;;;5091708;28;20093;-62
2021/11/10 06:49:49;;;;;;;27.83;11.18;;;1.40;99.90;;;;;;5087940;28;20028;-64
2021/11/10 06:52:15;;;;;;;31.63;11.70;;;1.40;99.90;;;;;;5086571;28;20513;-62
2021/11/10 06:54:41;;;;;;;23.00;10.50;;;1.30;99.90;;;;;;5084533;28;20496;-61
2021/11/10 06:57:06;;;;;;;21.25;11.77;;;1.30;99.90;;;;;;5072276;28;20073;-62
2021/11/10 06:59:32;;;;;;;26.45;11.82;;;1.20;99.90;;;;;;5086481;28;20020;-64
2021/11/10 07:01:57;;;;;;;25.65;11.07;;;1.20;99.90;;;;;;5088786;28;20066;-62
2021/11/10 07:04:23;;;;;;;20.05;10.43;;;1.10;99.90;;;;;;5083689;28;20060;-63
2021/11/10 07:06:48;;;;;;;25.40;10.88;;;1.10;99.90;;;;;;5089916;28;20478;-63
2021/11/10 07:09:14;;;;;;;27.40;13.32;;;1.20;99.90;;;;;;5083030;28;20043;-62
2021/11/10 07:11:40;;;;;;;25.38;10.60;;;1.30;99.90;;;;;;5086908;28;20034;-63
2021/11/10 07:14:08;;;;;;;22.13;10.90;;;1.40;99.90;;;;;;5087036;28;20032;-63
2021/11/10 07:16:34;;;;;;;28.42;12.52;;;1.50;99.90;;;;;;5082674;28;20486;-63
2021/11/10 07:19:00;;;;;;;25.15;12.20;;;1.50;99.90;;;;;;5089373;28;20102;-63
2021/11/10 07:21:25;;;;;;;28.45;12.10;;;1.60;99.90;;;;;;5085561;28;20032;-63
2021/11/10 07:23:52;;;;;;;27.77;12.60;;;1.80;99.90;;;;;;5079651;28;20032;-64
2021/11/10 07:26:18;;;;;;;24.05;12.35;;;1.90;99.90;;;;;;5084885;28;20020;-64
2021/11/10 07:28:44;;;;;;;21.15;11.95;;;1.90;99.90;;;;;;5085958;28;20016;-61
2021/11/10 07:31:09;;;;;;;29.88;12.57;;;2.00;99.90;;;;;;5069322;28;20028;-63
2021/11/10 07:33:35;;;;;;;28.98;12.90;;;2.00;99.90;;;;;;5088251;28;20085;-63
2021/11/10 07:36:00;;;;;;;22.42;11.38;;;2.10;99.90;;;;;;5089289;28;20040;-63
2021/11/10 07:38:26;;;;;;;35.15;12.82;;;2.10;99.90;;;;;;5087547;28;20031;-64
2021/11/10 07:40:53;;;;;;;28.17;12.52;;;2.20;99.90;;;;;;5083104;28;20473;-64
2021/11/10 07:43:20;;;;;;;29.15;12.10;;;2.30;99.90;;;;;;5083813;28;20493;-63
2021/11/10 07:45:55;;;;;;;25.13;11.52;;;2.40;99.90;;;;;;5086749;28;20058;-64
2021/11/10 07:48:21;;;;;;;28.95;13.25;;;2.50;99.90;;;;;;5086589;28;20100;-61
2021/11/10 07:50:47;;;;;;;30.92;12.77;;;2.50;99.90;;;;;;5086745;28;20058;-64
2021/11/10 07:53:13;;;;;;;26.48;11.57;;;2.50;99.90;;;;;;5086301;28;20430;-63
2021/11/10 07:55:39;;;;;;;24.20;12.75;;;2.60;99.90;;;;;;5090101;28;20121;-65
2021/11/10 07:58:04;;;;;;;29.80;12.63;;;2.70;99.90;;;;;;5088643;28;20418;-63
2021/11/10 08:00:30;;;;;;;33.67;13.73;;;2.70;99.90;;;;;;5085038;28;20031;-62
2021/11/10 08:02:56;;;;;;;25.63;13.80;;;2.80;99.90;;;;;;5087732;28;20020;-63
2021/11/10 08:05:23;;;;;;;28.35;12.85;;;2.90;99.90;;;;;;5086301;28;20554;-62
2021/11/10 08:07:49;;;;;;;26.67;12.75;;;2.90;99.90;;;;;;5092068;28;20060;-64
2021/11/10 08:10:15;;;;;;;32.83;15.27;;;3.00;99.90;;;;;;5089379;28;20097;-63
2021/11/10 08:12:41;;;;;;;32.53;16.13;;;3.10;99.90;;;;;;5091963;28;20028;-62
2021/11/10 08:15:10;;;;;;;36.40;16.42;;;3.10;99.90;;;;;;5090891;28;20447;-64
2021/11/10 08:17:36;;;;;;;39.03;17.25;;;3.20;99.90;;;;;;5087214;28;20027;-64
2021/11/10 08:20:08;;;;;;;30.52;16.25;;;3.20;99.90;;;;;;5091800;28;20028;-64
2021/11/10 08:22:34;;;;;;;33.80;16.48;;;3.20;99.90;;;;;;5069460;28;20027;-64
2021/11/10 08:25:00;;;;;;;36.15;17.73;;;3.30;99.90;;;;;;5089105;28;20024;-62
2021/11/10 08:27:27;;;;;;;32.30;16.95;;;3.30;99.90;;;;;;5091129;28;20024;-60
2021/11/10 08:29:52;;;;;;;36.53;17.40;;;3.30;99.90;;;;;;5070911;28;20017;-63
2021/11/10 08:32:18;;;;;;;37.30;16.48;;;3.40;99.90;;;;;;5065453;28;20073;-63
2021/11/10 08:34:44;;;;;;;38.05;18.00;;;3.50;99.90;;;;;;5091457;28;20044;-62
2021/11/10 08:37:10;;;;;;;33.03;17.25;;;3.60;99.90;;;;;;5092352;28;20059;-62
2021/11/10 08:39:35;;;;;;;31.00;16.15;;;3.70;99.90;;;;;;5079159;28;20024;-63
2021/11/10 08:42:03;;;;;;;34.58;15.65;;;3.80;99.90;;;;;;5086573;28;20028;-62
2021/11/10 08:44:29;;;;;;;39.53;16.92;;;3.90;99.90;;;;;;5092680;28;20032;-63
2021/11/10 08:46:56;;;;;;;34.08;15.77;;;4.00;99.90;;;;;;5085328;28;20429;-62
2021/11/10 08:49:22;;;;;;;31.50;15.82;;;4.20;99.90;;;;;;5086705;28;20012;-63
2021/11/10 08:51:48;;;;;;;24.95;14.63;;;4.20;99.90;;;;;;5084149;28;20108;-63
2021/11/10 08:54:14;;;;;;;39.63;14.15;;;4.40;99.90;;;;;;5084523;28;20031;-61
2021/11/10 08:56:40;;;;;;;33.88;15.40;;;4.50;99.90;;;;;;5085937;28;20032;-60
2021/11/10 08:59:06;;;;;;;31.42;15.55;;;4.60;99.90;;;;;;5089840;28;20076;-63
2021/11/10 09:01:34;;;;;;;33.75;15.60;;;4.70;99.90;;;;;;5087079;28;20028;-62
2021/11/10 09:04:00;;;;;;;27.55;14.48;;;4.90;99.90;;;;;;5088015;28;20027;-62
2021/11/10 09:06:26;;;;;;;34.15;15.93;;;5.00;99.90;;;;;;5088166;28;20406;-63
2021/11/10 09:08:52;;;;;;;39.63;15.40;;;5.10;99.90;;;;;;5068040;28;20142;-63
2021/11/10 09:11:19;;;;;;;27.67;15.43;;;5.30;99.90;;;;;;5082182;28;20549;-64
2021/11/10 09:13:45;;;;;;;31.60;15.48;;;5.40;99.90;;;;;;5095432;28;20477;-64
2021/11/10 09:16:11;;;;;;;40.45;16.15;;;5.50;99.90;;;;;;5097904;28;20047;-63
2021/11/10 09:18:37;;;;;;;34.30;15.82;;;5.70;99.90;;;;;;5105808;28;20114;-60
2021/11/10 09:21:03;;;;;;;27.95;14.85;;;5.80;99.90;;;;;;5102110;28;20039;-61
2021/11/10 09:23:29;;;;;;;30.38;15.20;;;6.00;99.90;;;;;;5100118;28;20027;-63
2021/11/10 09:25:54;;;;;;;31.13;16.58;;;6.10;99.90;;;;;;5104217;28;20111;-62
2021/11/10 09:28:22;;;;;;;31.77;17.65;;;6.20;99.90;;;;;;5097074;28;20557;-64
2021/11/10 09:30:51;;;;;;;35.10;18.02;;;6.20;99.90;;;;;;5104137;28;20490;-63
2021/11/10 09:33:18;;;;;;;31.70;16.98;;;6.30;99.90;;;;;;5103547;28;20027;-63
2021/11/10 09:35:45;;;;;;;30.95;15.65;;;6.40;99.90;;;;;;5101731;28;20022;-63
2021/11/10 09:38:12;;;;;;;27.98;14.93;;;6.40;99.90;;;;;;5104575;28;20415;-62
2021/11/10 09:40:40;;;;;;;32.42;16.02;;;6.40;99.90;;;;;;5104778;28;20409;-62
2021/11/10 09:43:06;;;;;;;37.72;15.48;;;6.40;99.90;;;;;;5099719;28;20019;-62
2021/11/10 09:45:34;;;;;;;33.15;15.07;;;6.40;99.90;;;;;;5103084;28;20015;-63
2021/11/10 09:48:08;;;;;;;30.42;15.82;;;6.40;99.90;;;;;;5099783;28;20609;-63
2021/11/10 09:50:35;;;;;;;;;;;6.50;99.90;;;;;;5092473;28;20031;-63
2021/11/10 09:53:01;;;;;;;28.98;15.15;;;6.50;99.90;;;;;;5104393;28;20334;-63
2021/11/10 09:55:30;;;;;;;36.35;16.90;;;6.40;99.90;;;;;;5090397;28;20028;-63
2021/11/10 09:57:56;;;;;;;32.90;16.98;;;6.50;99.90;;;;;;5109341;28;20047;-63
2021/11/10 10:00:27;;;;;;;38.45;18.23;;;6.50;99.90;;;;;;5112177;28;20062;-64
2021/11/10 10:02:53;;;;;;;37.13;17.88;;;6.40;99.90;;;;;;5111816;28;20032;-63
2021/11/10 10:05:21;;;;;;;36.15;17.38;;;6.40;99.90;;;;;;5106737;28;20509;-62
2021/11/10 10:07:52;;;;;;;37.33;18.38;;;6.40;99.90;;;;;;5074352;28;20042;-64
2021/11/10 10:10:18;;;;;;;40.33;19.98;;;6.50;99.90;;;;;;5097610;28;20042;-63
2021/11/10 10:12:43;;;;;;;36.17;18.50;;;6.40;99.90;;;;;;5119794;22;20054;-61
2021/11/10 10:15:10;;;;;;;38.53;18.50;;;6.40;99.90;;;;;;5083247;28;20024;-64
2021/11/10 10:17:40;;;;;;;39.28;18.63;;;6.50;99.90;;;;;;5082584;28;20126;-63
2021/11/10 10:20:20;;;;;;;30.90;18.33;;;6.50;99.90;;;;;;5086475;28;20016;-65
2021/11/10 10:22:47;;;;;;;38.33;18.48;;;6.50;99.90;;;;;;5079092;28;20105;-63
2021/11/10 10:25:12;;;;;;;35.58;18.48;;;6.50;99.90;;;;;;5078562;28;20498;-60
2021/11/10 10:27:50;;;;;;;41.67;19.27;;;6.60;99.90;;;;;;5082000;28;20147;-62
2021/11/10 10:30:29;;;;;;;38.20;19.40;;;6.70;99.90;;;;;;5082604;28;20032;-60
2021/11/10 10:33:03;;;;;;;38.60;18.38;;;6.70;99.90;;;;;;5073076;28;20024;-63
2021/11/10 10:35:30;;;;;;;38.80;17.63;;;6.80;99.90;;;;;;5085290;28;20021;-61
2021/11/10 10:37:56;;;;;;;36.60;18.45;;;6.80;99.90;;;;;;5077251;28;20039;-59
2021/11/10 10:40:22;;;;;;;33.08;16.83;;;6.90;99.90;;;;;;5067525;28;20766;-59
2021/11/10 10:42:48;;;;;;;32.40;16.00;;;7.00;99.90;;;;;;5072901;28;20060;-60
2021/11/10 10:45:50;;;;;;;31.40;15.98;;;7.10;99.90;;;;;;5062574;28;20111;-65
2021/11/10 10:48:20;;;;;;;34.40;17.27;;;7.10;99.90;;;;;;5037978;28;20390;-61
2021/11/10 10:50:51;;;;;;;29.35;15.77;;;7.10;99.90;;;;;;5077729;28;20016;-62
2021/11/10 10:53:38;;;;;;;31.77;15.18;;;7.10;99.90;;;;;;5065661;28;20028;-62
2021/11/10 10:56:20;;;;;;;34.78;15.82;;;7.20;99.90;;;;;;5072660;28;20037;-64
2021/11/10 10:58:48;;;;;;;38.20;15.68;;;7.20;99.90;;;;;;5066298;28;20036;-62
2021/11/10 11:01:24;;;;;;;32.80;15.88;;;7.30;99.90;;;;;;5065953;28;20012;-61
2021/11/10 11:03:58;;;;;;;36.95;15.55;;;7.40;99.90;;;;;;5068663;28;20032;-62
2021/11/10 11:06:27;;;;;;;28.88;15.70;;;7.50;99.90;;;;;;5065230;28;20025;-62
2021/11/10 11:08:55;;;;;;;30.55;15.55;;;7.50;99.90;;;;;;5076296;28;20112;-64
2021/11/10 11:12:04;;;;;;;28.58;15.27;;;7.60;99.90;;;;;;5068159;28;20023;-61
2021/11/10 11:14:36;;;;;;;33.47;16.33;;;7.60;99.90;;;;;;5070523;28;20070;-62
2021/11/10 11:17:04;;;;;;;37.08;17.05;;;7.50;99.90;;;;;;5081206;28;20039;-61
2021/11/10 11:19:33;;;;;;;35.47;18.17;;;7.60;99.90;;;;;;5073199;28;20465;-61
2021/11/10 11:22:00;;;;;;;32.10;16.67;;;7.80;99.90;;;;;;5065252;28;20029;-62
2021/11/10 11:24:28;;;;;;;30.27;16.13;;;7.80;99.90;;;;;;5072924;28;20086;-60
2021/11/10 11:26:54;;;;;;;37.22;15.80;;;8.00;99.90;;;;;;5064399;28;20078;-60
2021/11/10 11:29:22;;;;;;;37.03;17.30;;;8.00;99.90;;;;;;5067852;28;20028;-61
2021/11/10 11:31:49;;;;;;;34.30;17.30;;;8.00;99.90;;;;;;5068847;28;20048;-59
2021/11/10 11:34:15;;;;;;;29.42;16.67;;;8.00;99.90;;;;;;5068904;28;20028;-59
2021/11/10 11:36:55;;;;;;;38.85;18.88;;;8.10;99.90;;;;;;5069334;28;20067;-62
2021/11/10 11:39:22;;;;;;;29.00;15.55;;;8.20;99.90;;;;;;5069722;28;20111;-62
2021/11/10 11:41:49;;;;;;;32.88;16.65;;;8.40;99.90;;;;;;5069064;28;20035;-61
2021/11/10 11:44:17;;;;;;;36.53;18.15;;;8.50;99.90;;;;;;5074265;28;20020;-61
2021/11/10 11:46:45;;;;;;;31.23;17.10;;;8.60;99.90;;;;;;5070255;28;20525;-61
2021/11/10 11:49:13;;;;;;;43.65;17.45;;;8.70;99.90;;;;;;5070600;28;20039;-61
2021/11/10 11:51:39;;;;;;;45.28;18.95;;;8.80;99.90;;;;;;5070868;28;20505;-61
2021/11/10 11:54:07;;;;;;;35.15;18.00;;;8.90;99.90;;;;;;5069370;28;20035;-62
2021/11/10 11:56:33;;;;;;;44.45;18.80;;;9.10;99.90;;;;;;5086868;28;20123;-61
2021/11/10 11:59:01;;;;;;;39.38;19.10;;;9.20;99.90;;;;;;5066151;28;20029;-61
2021/11/10 12:01:30;;;;;;;34.20;18.13;;;9.30;99.90;;;;;;5078727;28;20061;-61
2021/11/10 12:04:01;;;;;;;33.25;17.25;;;9.40;99.90;;;;;;5075231;28;20114;-60
2021/11/10 12:06:29;;;;;;;36.35;16.63;;;9.20;99.90;;;;;;5080048;28;20029;-61
2021/11/10 12:08:57;;;;;;;35.13;18.35;;;9.30;99.90;;;;;;5075559;28;20398;-60
2021/11/10 12:11:37;;;;;;;34.28;18.02;;;9.30;99.90;;;;;;5076922;28;20028;-62
2021/11/10 12:14:16;;;;;;;38.63;18.33;;;9.30;99.90;;;;;;5070138;28;20045;-61
2021/11/10 12:16:58;;;;;;;32.90;17.25;;;9.50;99.90;;;;;;5069387;28;20032;-61
2021/11/10 12:19:34;;;;;;;33.80;17.38;;;9.60;99.90;;;;;;5069474;28;20063;-62
2021/11/10 12:22:01;;;;;;;37.50;17.35;;;9.70;99.90;;;;;;5070808;28;20027;-61
2021/11/10 12:24:51;;;;;;;30.58;16.92;;;9.80;99.90;;;;;;5071832;28;20071;-62
2021/11/10 12:27:32;;;;;;;33.10;16.77;;;9.90;99.90;;;;;;5069129;28;20025;-62
2021/11/10 12:30:04;;;;;;;39.15;17.90;;;10.00;99.90;;;;;;5067976;28;20465;-61
2021/11/10 12:32:29;;;;;;;43.58;18.05;;;10.10;99.90;;;;;;5069551;28;20115;-60
2021/11/10 12:34:57;;;;;;;34.10;16.80;;;10.20;99.90;;;;;;5067384;28;20776;-61
2021/11/10 12:37:27;;;;;;;40.95;19.55;;;10.20;99.90;;;;;;5066665;28;20457;-60